This is the latest recevied weather packets stored in our database for station/object N3WMC. If no packets are shown the sender has not sent any weather packets the latest 10 day(s).
| Time | Temp. | Humidity | Pressure | Rain* | Wind** | Luminosity | Snow |
|---|---|---|---|---|---|---|---|
| 1787929374 | 25° C | 72% | 1021.4 hPa | 0 mm | - | 317 W/m² | - |
| 1787929071 | 24.44° C | 72% | 1021.1 hPa | 0 mm | - | 540 W/m² | - |
| 1787928767 | 24.44° C | 73% | 1021.1 hPa | 0 mm | - | 525 W/m² | - |
| 1787928465 | 24.44° C | 72% | 1021 hPa | 0 mm | - | 508 W/m² | - |
| 1787928164 | 24.44° C | 73% | 1021.1 hPa | 0 mm | - | 493 W/m² | - |
| 1787927859 | 24.44° C | 74% | 1021.1 hPa | 0 mm | - | 485 W/m² | - |
| 1787927553 | 23.89° C | 73% | 1021 hPa | 0 mm | - | 476 W/m² | - |
| 1787927248 | 23.89° C | 76% | 1020.9 hPa | 0 mm | - | 459 W/m² | - |
| 1787926944 | 23.89° C | 75% | 1020.8 hPa | 0 mm | - | 448 W/m² | - |
| 1787926639 | 23.89° C | 76% | 1020.7 hPa | 0 mm | - | 448 W/m² | - |
| 1787926336 | 22.78° C | 80% | 1020.8 hPa | 0 mm | - | 437 W/m² | - |
| 1787926031 | 23.33° C | 78% | 1020.8 hPa | 0 mm | - | 455 W/m² | - |
| 1787925725 | 23.33° C | 79% | 1020.7 hPa | 0 mm | - | 429 W/m² | - |
| 1787925419 | 22.78° C | 79% | 1020.5 hPa | 0 mm | - | 397 W/m² | - |
| 1787925114 | 22.22° C | 80% | 1020.6 hPa | 0 mm | - | 389 W/m² | - |
| 1787924812 | 22.78° C | 80% | 1020.3 hPa | 0 mm | - | 365 W/m² | - |
| 1787924507 | 22.78° C | 79% | 1020.5 hPa | 0 mm | - | 359 W/m² | - |
| 1787924203 | 22.22° C | 80% | 1020.4 hPa | 0 mm | - | 346 W/m² | - |
| 1787923898 | 22.22° C | 81% | 1020.6 hPa | 0 mm | - | 334 W/m² | - |
| 1787923597 | 22.22° C | 81% | 1020.4 hPa | 0 mm | - | 325 W/m² | - |
| 1787923293 | 22.22° C | 80% | 1020.5 hPa | 0 mm | - | 328 W/m² | - |
| 1787922987 | 21.67° C | 82% | 1020.4 hPa | 0 mm | - | 315 W/m² | - |
| 1787922682 | 22.22° C | 80% | 1020.3 hPa | 0 mm | - | 300 W/m² | - |
| 1787922381 | 22.78° C | 80% | 1020.3 hPa | 0 mm | - | 300 W/m² | - |
| 1787922080 | 22.78° C | 80% | 1020.3 hPa | 0 mm | - | 287 W/m² | - |
* Rain latest hour (hover to see other rain measurements)
** Current wind speed in m/s (hover to see current wind gust speed)